Time;durP1;ratioP1;P1;durP2;ratioP2;P2;SDS_P1;SDS_P2;PMS_P1;PMS_P2;Temp;Humidity;BMP_temperature;BMP_pressure;BME280_temperature;BME280_humidity;BME280_pressure;Samples;Min_cycle;Max_cycle;Signal;HPM_P1;HPM_P2
2023/08/08 00:00:55;;;;;;;3.67;2.20;;;14.40;99.90;;;;;;4975237;28;20728;-78
2023/08/08 00:03:35;;;;;;;3.20;2.07;;;14.40;99.90;;;;;;4973077;28;20813;-78
2023/08/08 00:06:13;;;;;;;2.10;2.00;;;14.30;99.90;;;;;;4974241;28;20506;-80
2023/08/08 00:09:01;;;;;;;2.00;1.90;;;14.40;99.90;;;;;;4975211;28;20445;-80
2023/08/08 00:11:37;;;;;;;3.70;2.10;;;14.40;99.90;;;;;;4976524;28;20513;-78
2023/08/08 00:14:16;;;;;;;2.50;2.03;;;14.40;99.90;;;;;;4975370;28;20433;-79
2023/08/08 00:16:47;;;;;;;1.97;1.87;;;14.50;99.90;;;;;;4974492;28;20481;-77
2023/08/08 00:22:09;;;;;;;1.93;1.83;;;14.40;99.90;;;;;;4973760;28;20477;-77
2023/08/08 00:24:46;;;;;;;1.97;1.87;;;14.50;99.90;;;;;;4976520;28;20461;-77
2023/08/08 00:27:20;;;;;;;2.30;2.10;;;14.50;99.90;;;;;;4978449;28;20457;-78
2023/08/08 00:29:59;;;;;;;2.30;1.63;;;14.60;99.90;;;;;;4977931;28;20504;-79
2023/08/08 00:32:27;;;;;;;6.60;2.00;;;14.60;99.90;;;;;;4978950;28;20508;-79
2023/08/08 00:34:55;;;;;;;2.00;1.90;;;14.60;99.90;;;;;;4976980;28;20487;-79
2023/08/08 00:37:34;;;;;;;2.83;2.07;;;14.60;99.90;;;;;;4977155;28;20817;-79
2023/08/08 00:40:02;;;;;;;7.80;7.10;;;14.60;99.90;;;;;;4978524;28;20535;-78
2023/08/08 00:42:36;;;;;;;3.20;2.90;;;14.60;99.90;;;;;;4978621;28;20457;-77
2023/08/08 00:45:14;;;;;;;2.40;2.30;;;14.60;99.90;;;;;;4977895;28;20499;-77
2023/08/08 00:47:47;;;;;;;2.20;2.00;;;14.70;99.90;;;;;;4977075;28;20650;-78
2023/08/08 00:50:24;;;;;;;2.10;2.00;;;14.70;99.90;;;;;;4976354;28;20477;-76
2023/08/08 00:52:58;;;;;;;4.10;2.00;;;14.70;99.90;;;;;;4977000;28;20444;-77
2023/08/08 00:55:35;;;;;;;2.37;2.00;;;14.70;99.90;;;;;;4977276;28;20473;-77
2023/08/08 00:58:10;;;;;;;6.50;2.57;;;14.80;99.90;;;;;;4977125;28;20457;-77
2023/08/08 01:00:41;;;;;;;2.13;1.93;;;14.70;99.90;;;;;;4976160;28;20452;-78
2023/08/08 01:03:19;;;;;;;2.33;2.00;;;14.70;99.90;;;;;;4976143;28;20464;-77
2023/08/08 01:05:53;;;;;;;1.97;1.77;;;14.70;99.90;;;;;;4976006;28;20461;-78
2023/08/08 01:08:30;;;;;;;2.00;1.90;;;14.80;99.90;;;;;;4977207;28;20453;-78
2023/08/08 01:10:58;;;;;;;3.83;1.90;;;14.70;99.90;;;;;;4978353;28;20539;-77
2023/08/08 01:13:33;;;;;;;2.33;1.83;;;14.80;99.90;;;;;;4977317;28;20941;-77
2023/08/08 01:16:03;;;;;;;1.87;1.77;;;14.80;99.90;;;;;;4977470;28;20556;-78
2023/08/08 01:18:31;;;;;;;2.10;1.83;;;14.80;99.90;;;;;;4975547;28;20457;-77
2023/08/08 01:21:10;;;;;;;2.47;1.70;;;14.80;99.90;;;;;;4975532;28;20921;-78
2023/08/08 01:23:50;;;;;;;2.60;2.00;;;14.80;99.90;;;;;;4975749;28;20572;-77
2023/08/08 01:26:28;;;;;;;1.70;1.60;;;14.80;99.90;;;;;;4976019;28;20446;-77
2023/08/08 01:29:04;;;;;;;2.30;2.07;;;14.80;99.90;;;;;;4975847;28;20531;-78
2023/08/08 01:31:48;;;;;;;2.53;2.33;;;14.80;99.90;;;;;;4975039;28;20487;-78
2023/08/08 01:34:23;;;;;;;1.90;1.60;;;14.80;99.90;;;;;;4976517;28;20504;-77
2023/08/08 01:37:00;;;;;;;2.20;1.80;;;14.80;99.90;;;;;;4977511;28;20866;-77
2023/08/08 01:39:32;;;;;;;1.90;1.80;;;14.80;99.90;;;;;;4975372;28;20593;-78
2023/08/08 01:42:13;;;;;;;1.83;1.80;;;14.80;99.90;;;;;;4977700;28;20450;-79
2023/08/08 01:44:49;;;;;;;1.83;1.70;;;14.80;99.90;;;;;;4977911;28;20615;-77
2023/08/08 01:47:20;;;;;;;3.83;2.00;;;14.90;99.90;;;;;;4975768;28;20765;-77
2023/08/08 01:49:54;;;;;;;2.27;2.07;;;14.70;99.90;;;;;;4977868;28;20460;-78
2023/08/08 01:52:25;;;;;;;2.20;2.00;;;14.90;99.90;;;;;;4976303;28;21012;-77
2023/08/08 01:54:56;;;;;;;2.00;1.90;;;14.90;99.90;;;;;;4976221;28;20519;-78
2023/08/08 01:57:39;;;;;;;2.03;1.93;;;15.10;99.90;;;;;;4987277;28;20436;-76
2023/08/08 02:03:37;;;;;;;2.10;2.00;;;15.00;99.90;;;;;;4976990;28;20449;-79
2023/08/08 02:06:21;;;;;;;7.77;2.27;;;15.00;99.90;;;;;;4980904;28;20470;-79
2023/08/08 02:08:58;;;;;;;1.80;1.77;;;15.00;99.90;;;;;;4978679;28;20494;-77
2023/08/08 02:11:39;;;;;;;2.23;2.10;;;15.00;99.90;;;;;;4983037;28;20536;-77
2023/08/08 02:17:10;;;;;;;2.53;2.33;;;14.80;99.90;;;;;;4984845;28;20485;-78
2023/08/08 02:19:45;;;;;;;2.40;2.20;;;15.00;99.90;;;;;;4983144;28;20469;-78
2023/08/08 02:22:37;;;;;;;2.10;1.90;;;15.00;99.90;;;;;;4983369;28;20448;-76
2023/08/08 02:25:34;;;;;;;2.63;2.00;;;15.00;99.90;;;;;;4983037;28;21000;-76
2023/08/08 02:28:21;;;;;;;2.70;1.90;;;15.00;99.90;;;;;;4983005;28;20453;-78
2023/08/08 02:30:56;;;;;;;1.77;1.67;;;15.00;99.90;;;;;;4981096;28;20524;-75
2023/08/08 02:33:27;;;;;;;2.10;2.00;;;14.90;99.90;;;;;;4991648;28;20503;-78
2023/08/08 02:36:09;;;;;;;2.20;2.10;;;14.90;99.90;;;;;;4988496;28;20524;-79
2023/08/08 02:38:53;;;;;;;2.17;2.07;;;14.90;99.90;;;;;;4989372;28;20448;-78
2023/08/08 02:41:42;;;;;;;2.07;1.93;;;14.80;99.90;;;;;;4986646;28;20457;-75
2023/08/08 02:44:26;;;;;;;;;;;;;;;;;;;;;
2023/08/08 02:47:23;;;;;;;2.30;2.10;;;14.70;99.90;;;;;;4990802;28;20477;-77
2023/08/08 02:50:00;;;;;;;1.70;1.60;;;14.70;99.90;;;;;;4991283;28;20492;-77
2023/08/08 02:52:41;;;;;;;2.07;1.97;;;14.70;99.90;;;;;;4992065;28;20445;-77
2023/08/08 02:55:28;;;;;;;3.47;1.90;;;14.60;99.90;;;;;;4991675;28;20501;-80
2023/08/08 02:58:15;;;;;;;4.03;2.10;;;14.60;99.90;;;;;;4989827;28;20451;-77
2023/08/08 03:01:19;;;;;;;2.43;2.33;;;14.60;99.90;;;;;;4982757;28;20501;-77
2023/08/08 03:04:01;;;;;;;2.47;2.27;;;14.40;99.90;;;;;;4979046;28;20457;-78
2023/08/08 03:06:32;;;;;;;2.50;1.90;;;14.60;99.90;;;;;;4977358;28;20469;-77
2023/08/08 03:09:08;;;;;;;2.10;2.00;;;14.50;99.90;;;;;;4976907;28;20449;-78
2023/08/08 03:11:51;;;;;;;2.60;1.80;;;14.50;99.90;;;;;;4976381;28;20492;-76
2023/08/08 03:14:30;;;;;;;3.50;1.73;;;14.50;99.90;;;;;;4975532;28;20748;-78
2023/08/08 03:17:09;;;;;;;2.13;2.03;;;14.50;99.90;;;;;;4974820;28;20862;-78
2023/08/08 03:19:40;;;;;;;2.10;2.00;;;14.50;99.90;;;;;;4974004;28;21031;-78
2023/08/08 03:22:16;;;;;;;3.20;2.10;;;14.50;99.90;;;;;;4974141;28;20992;-77
2023/08/08 03:24:59;;;;;;;2.60;2.40;;;14.40;99.90;;;;;;4975213;28;20945;-77
2023/08/08 03:27:34;;;;;;;2.07;1.80;;;14.40;99.90;;;;;;4976247;28;20539;-77
2023/08/08 03:30:12;;;;;;;2.23;2.13;;;14.40;99.90;;;;;;4981919;28;20467;-78
2023/08/08 03:33:00;;;;;;;1.90;1.80;;;14.40;99.90;;;;;;4983728;28;20453;-79
2023/08/08 03:39:03;;;;;;;2.80;2.00;;;14.40;99.90;;;;;;4977668;28;20513;-77
2023/08/08 03:41:43;;;;;;;2.10;2.00;;;14.40;99.90;;;;;;4982018;28;20460;-79
2023/08/08 03:44:26;;;;;;;1.90;1.80;;;14.40;99.90;;;;;;4980646;28;20522;-77
2023/08/08 03:47:04;;;;;;;2.23;2.10;;;14.40;99.90;;;;;;4982342;28;20564;-78
2023/08/08 03:49:57;;;;;;;3.67;2.73;;;14.40;99.90;;;;;;4983435;28;20818;-77
2023/08/08 03:52:31;;;;;;;2.00;1.90;;;14.40;99.90;;;;;;4985671;28;20580;-78
2023/08/08 03:55:19;;;;;;;6.47;2.73;;;14.50;99.90;;;;;;4989737;28;20472;-78
2023/08/08 03:57:57;;;;;;;2.07;1.97;;;14.40;99.90;;;;;;4989481;28;20464;-77
2023/08/08 04:00:49;;;;;;;1.90;1.80;;;14.50;99.90;;;;;;4988095;28;20520;-79
2023/08/08 04:03:36;;;;;;;2.87;2.23;;;14.50;99.90;;;;;;4987045;28;20430;-78
2023/08/08 04:06:11;;;;;;;2.53;2.20;;;14.50;99.90;;;;;;4987036;28;20477;-76
2023/08/08 04:08:51;;;;;;;7.10;6.40;;;14.50;99.90;;;;;;4985840;28;20455;-76
2023/08/08 04:11:31;;;;;;;5.50;2.10;;;14.50;99.90;;;;;;4985997;28;20492;-77
2023/08/08 04:14:06;;;;;;;2.20;2.10;;;14.50;99.90;;;;;;4986416;28;20441;-79
2023/08/08 04:16:36;;;;;;;2.50;2.30;;;14.60;99.90;;;;;;4987484;28;21033;-78
2023/08/08 04:19:14;;;;;;;3.03;2.83;;;14.60;99.90;;;;;;4985951;28;20479;-79
2023/08/08 04:21:56;;;;;;;2.90;2.70;;;14.60;99.90;;;;;;4985869;28;20449;-76
2023/08/08 04:24:47;;;;;;;2.20;2.10;;;14.60;99.90;;;;;;4986794;28;20457;-79
2023/08/08 04:27:39;;;;;;;2.50;2.30;;;14.60;99.90;;;;;;4987533;28;20452;-78
2023/08/08 04:30:18;;;;;;;2.27;2.07;;;14.60;99.90;;;;;;4985075;28;20449;-77
2023/08/08 04:33:19;;;;;;;1.53;1.43;;;14.60;99.90;;;;;;4984822;28;20453;-76
2023/08/08 04:35:50;;;;;;;3.77;2.10;;;14.60;99.90;;;;;;4984987;28;20465;-78
2023/08/08 04:38:28;;;;;;;1.80;1.70;;;14.60;99.90;;;;;;4987880;28;20457;-77
2023/08/08 04:41:06;;;;;;;2.20;2.03;;;14.70;99.90;;;;;;4985241;28;20476;-79
2023/08/08 04:43:36;;;;;;;2.33;2.23;;;14.70;99.90;;;;;;4988609;28;20445;-78
2023/08/08 04:46:09;;;;;;;2.20;2.10;;;14.50;99.90;;;;;;4983713;28;20532;-78
2023/08/08 04:48:38;;;;;;;2.00;1.90;;;14.70;99.90;;;;;;4982620;28;20445;-77
2023/08/08 04:51:10;;;;;;;2.23;2.10;;;14.80;99.90;;;;;;4979663;28;20547;-77
2023/08/08 04:53:47;;;;;;;2.07;1.97;;;14.60;99.90;;;;;;4984637;28;20469;-77
2023/08/08 04:56:24;;;;;;;2.40;2.20;;;14.80;99.90;;;;;;4983839;28;20502;-77
2023/08/08 04:59:11;;;;;;;2.73;1.93;;;14.80;99.90;;;;;;4981845;28;20979;-78
2023/08/08 05:02:14;;;;;;;2.47;2.27;;;14.80;99.90;;;;;;4983659;28;20434;-78
2023/08/08 05:05:03;;;;;;;1.97;1.87;;;14.80;99.90;;;;;;4977916;28;20561;-78
2023/08/08 05:07:40;;;;;;;4.00;2.10;;;14.80;99.90;;;;;;4976800;28;20449;-77
2023/08/08 05:10:33;;;;;;;1.83;1.73;;;14.80;99.90;;;;;;4976465;28;20536;-77
2023/08/08 05:13:11;;;;;;;2.43;2.00;;;14.90;99.90;;;;;;4961709;28;20924;-78
2023/08/08 05:15:48;;;;;;;3.10;2.13;;;14.80;99.90;;;;;;4976464;28;20517;-77
2023/08/08 05:18:26;;;;;;;3.83;2.40;;;14.90;99.90;;;;;;4974329;28;20454;-78
2023/08/08 05:21:12;;;;;;;2.10;2.00;;;14.90;99.90;;;;;;4978249;28;21031;-78
2023/08/08 05:23:46;;;;;;;2.10;2.00;;;14.90;99.90;;;;;;4975319;28;20466;-76
2023/08/08 05:26:21;;;;;;;2.90;2.10;;;15.10;99.90;;;;;;4977256;28;20497;-76
2023/08/08 05:28:59;;;;;;;2.13;1.80;;;15.10;99.90;;;;;;4978368;28;20970;-77
2023/08/08 05:31:35;;;;;;;2.50;2.30;;;15.30;99.90;;;;;;4976707;28;20512;-78
2023/08/08 05:34:17;;;;;;;2.07;1.90;;;15.30;99.90;;;;;;4975064;28;20469;-77
2023/08/08 05:37:00;;;;;;;2.50;2.30;;;15.40;99.90;;;;;;4976080;28;20565;-78
2023/08/08 05:39:47;;;;;;;2.20;2.00;;;15.50;99.90;;;;;;4976168;28;20454;-76
2023/08/08 05:42:29;;;;;;;2.47;2.27;;;15.60;99.90;;;;;;4977400;28;20480;-76
2023/08/08 05:45:24;;;;;;;2.13;2.00;;;15.60;99.90;;;;;;4977692;28;20479;-77
2023/08/08 05:48:11;;;;;;;2.13;2.03;;;15.80;99.90;;;;;;4977534;28;20453;-78
2023/08/08 05:50:46;;;;;;;1.60;1.60;;;15.80;99.90;;;;;;4978032;28;20457;-78
2023/08/08 05:53:16;;;;;;;3.20;1.83;;;15.90;99.90;;;;;;4976967;28;20456;-77
2023/08/08 05:55:48;;;;;;;2.00;1.90;;;16.00;99.90;;;;;;4976552;28;20568;-79
2023/08/08 05:58:19;;;;;;;2.10;1.77;;;16.00;99.90;;;;;;4976236;28;20464;-78
2023/08/08 06:00:58;;;;;;;2.10;2.00;;;16.20;99.90;;;;;;4979423;28;20445;-78
2023/08/08 06:03:27;;;;;;;2.20;2.00;;;16.20;99.90;;;;;;4981719;28;20481;-76
2023/08/08 06:05:56;;;;;;;1.87;1.77;;;16.30;99.90;;;;;;4981076;28;20536;-77
2023/08/08 06:08:24;;;;;;;1.90;1.80;;;16.30;99.90;;;;;;4979148;28;20454;-78
2023/08/08 06:10:58;;;;;;;2.10;1.90;;;16.60;99.90;;;;;;4981061;28;20772;-77
2023/08/08 06:13:26;;;;;;;2.33;2.10;;;16.60;99.90;;;;;;4977617;28;20426;-75
2023/08/08 06:15:54;;;;;;;3.33;3.10;;;16.70;99.90;;;;;;4981645;28;20479;-77
2023/08/08 06:18:29;;;;;;;1.90;1.80;;;16.80;99.90;;;;;;4983763;28;20446;-77
2023/08/08 06:21:01;;;;;;;2.00;1.87;;;16.80;99.90;;;;;;4981793;28;20452;-76
2023/08/08 06:23:36;;;;;;;2.20;1.83;;;16.90;99.90;;;;;;4982409;28;20445;-76
2023/08/08 06:26:14;;;;;;;2.13;2.03;;;17.00;99.90;;;;;;4982466;28;20473;-77
2023/08/08 06:28:53;;;;;;;2.60;2.10;;;17.10;99.90;;;;;;4982806;28;20477;-78
2023/08/08 06:31:32;;;;;;;2.20;2.00;;;17.10;99.90;;;;;;4979953;28;20487;-77
2023/08/08 06:34:05;;;;;;;2.47;2.10;;;17.20;99.90;;;;;;4978716;28;20439;-75
2023/08/08 06:36:46;;;;;;;2.70;2.50;;;17.30;99.90;;;;;;4977572;28;20900;-77
2023/08/08 06:39:21;;;;;;;2.07;1.90;;;17.40;99.90;;;;;;4978222;28;20515;-77
2023/08/08 06:41:51;;;;;;;2.23;1.90;;;17.50;99.90;;;;;;4979796;28;20453;-74
2023/08/08 06:44:23;;;;;;;2.63;1.93;;;17.60;99.90;;;;;;4977980;28;20457;-78
2023/08/08 06:47:06;;;;;;;2.17;1.93;;;17.70;99.90;;;;;;4975261;28;20519;-78
2023/08/08 06:50:05;;;;;;;1.87;1.77;;;17.80;99.90;;;;;;4974847;28;20465;-76
2023/08/08 06:55:38;;;;;;;2.53;1.80;;;17.80;99.90;;;;;;4969746;28;20500;-76
2023/08/08 06:58:12;;;;;;;2.47;2.27;;;17.80;99.90;;;;;;4974167;28;20449;-77
2023/08/08 07:00:45;;;;;;;1.87;1.77;;;17.80;99.90;;;;;;4974071;28;20461;-78
2023/08/08 07:03:15;;;;;;;2.57;1.70;;;17.80;99.90;;;;;;4973470;28;20504;-76
2023/08/08 07:05:54;;;;;;;2.00;1.80;;;17.80;99.90;;;;;;4973031;28;20561;-76
2023/08/08 07:08:45;;;;;;;2.70;1.83;;;18.00;99.90;;;;;;4974243;28;20453;-77
2023/08/08 07:11:24;;;;;;;1.60;1.50;;;18.10;99.90;;;;;;4971772;28;20460;-76
2023/08/08 07:13:58;;;;;;;3.40;2.30;;;18.20;99.90;;;;;;4971970;28;20531;-76
2023/08/08 07:16:44;;;;;;;1.73;1.50;;;18.40;99.90;;;;;;4974560;28;20453;-77
2023/08/08 07:19:24;;;;;;;1.80;1.70;;;18.40;99.90;;;;;;4962668;28;20457;-78
2023/08/08 07:22:10;;;;;;;2.00;1.80;;;18.50;99.90;;;;;;4973794;28;20523;-77
2023/08/08 07:24:51;;;;;;;2.17;2.03;;;18.40;99.90;;;;;;4974348;28;20888;-78
2023/08/08 07:27:19;;;;;;;2.97;1.93;;;18.20;99.90;;;;;;4976532;28;20450;-78
2023/08/08 07:29:48;;;;;;;2.40;1.77;;;18.30;99.90;;;;;;4981029;28;20450;-78
2023/08/08 07:32:28;;;;;;;2.63;1.87;;;18.60;99.90;;;;;;4978458;28;20580;-78
2023/08/08 07:34:56;;;;;;;2.23;1.87;;;18.60;99.90;;;;;;4974013;28;20453;-77
2023/08/08 07:37:25;;;;;;;3.63;2.27;;;18.70;99.90;;;;;;4975014;28;20461;-77
2023/08/08 07:39:56;;;;;;;4.80;3.30;;;18.70;99.90;;;;;;4974070;28;20460;-77
2023/08/08 07:42:41;;;;;;;3.20;1.67;;;18.80;99.90;;;;;;4975456;28;20459;-78
2023/08/08 07:45:22;;;;;;;2.60;1.80;;;18.90;99.90;;;;;;4974280;28;20472;-78
2023/08/08 07:47:51;;;;;;;4.20;1.97;;;18.80;99.90;;;;;;4974405;28;20475;-76
2023/08/08 07:50:32;;;;;;;3.10;1.80;;;19.00;99.90;;;;;;4975074;28;20470;-78
2023/08/08 07:53:02;;;;;;;1.90;1.80;;;19.00;99.90;;;;;;4974156;28;20484;-77
2023/08/08 07:55:42;;;;;;;1.80;1.67;;;19.10;99.90;;;;;;4977144;28;20483;-78
2023/08/08 07:58:12;;;;;;;1.83;1.70;;;19.00;99.90;;;;;;4978827;28;20459;-77
2023/08/08 08:00:44;;;;;;;1.80;1.70;;;18.90;99.90;;;;;;4979365;28;20476;-78
2023/08/08 08:03:15;;;;;;;2.40;1.87;;;19.00;99.90;;;;;;4978575;28;20825;-78
2023/08/08 08:05:54;;;;;;;1.80;1.70;;;18.90;99.90;;;;;;4981370;28;20470;-78
2023/08/08 08:08:24;;;;;;;1.70;1.60;;;18.90;99.90;;;;;;4982858;28;20570;-78
2023/08/08 08:10:52;;;;;;;1.73;1.63;;;19.10;99.90;;;;;;4985827;28;20442;-77
2023/08/08 08:13:19;;;;;;;1.83;1.70;;;19.00;99.90;;;;;;4984823;28;20515;-79
2023/08/08 08:15:47;;;;;;;4.13;1.70;;;19.10;99.90;;;;;;4979270;28;20546;-78
2023/08/08 08:18:20;;;;;;;2.50;2.27;;;19.10;99.90;;;;;;4979840;28;21000;-80
2023/08/08 08:20:59;;;;;;;4.40;2.00;;;19.10;99.90;;;;;;4980073;28;20446;-77
2023/08/08 08:23:32;;;;;;;2.90;2.17;;;19.10;99.90;;;;;;4979937;28;20473;-79
2023/08/08 08:25:59;;;;;;;1.77;1.67;;;19.20;99.90;;;;;;4983043;28;20531;-77
2023/08/08 08:28:29;;;;;;;2.83;1.53;;;19.30;99.90;;;;;;4978090;28;20459;-79
2023/08/08 08:30:59;;;;;;;2.43;1.60;;;19.40;99.90;;;;;;4979062;28;20457;-77
2023/08/08 08:33:30;;;;;;;1.93;1.80;;;19.20;99.90;;;;;;4977872;28;20993;-78
2023/08/08 08:36:00;;;;;;;2.00;1.90;;;19.30;99.90;;;;;;4977910;28;20465;-76
2023/08/08 08:38:37;;;;;;;2.60;1.70;;;19.40;99.90;;;;;;4979263;28;20485;-79
2023/08/08 08:41:06;;;;;;;2.30;1.70;;;19.20;99.90;;;;;;4981874;28;20460;-78
2023/08/08 08:43:40;;;;;;;2.20;1.40;;;19.50;99.90;;;;;;4983404;28;20446;-79
2023/08/08 08:46:10;;;;;;;2.07;1.97;;;19.60;99.90;;;;;;4982363;28;20487;-80
2023/08/08 08:48:38;;;;;;;2.00;1.53;;;19.60;99.90;;;;;;4980775;28;20457;-80
2023/08/08 08:51:06;;;;;;;1.70;1.60;;;19.80;99.90;;;;;;4982048;28;20540;-78
2023/08/08 08:53:39;;;;;;;1.70;1.60;;;19.80;99.90;;;;;;4981656;28;20520;-80
2023/08/08 08:56:08;;;;;;;1.77;1.67;;;19.90;99.90;;;;;;4981542;28;20539;-80
2023/08/08 08:58:36;;;;;;;2.00;1.80;;;19.70;99.90;;;;;;4980052;28;20985;-77
2023/08/08 09:01:03;;;;;;;2.13;1.63;;;19.70;99.90;;;;;;4979174;28;20458;-80
2023/08/08 09:03:30;;;;;;;1.93;1.67;;;19.80;99.90;;;;;;4978566;28;20778;-77
2023/08/08 09:06:00;;;;;;;1.60;1.50;;;20.20;99.90;;;;;;4977959;28;20477;-78
2023/08/08 09:08:32;;;;;;;1.67;1.57;;;20.40;99.90;;;;;;4979618;28;20449;-78
2023/08/08 09:11:04;;;;;;;1.70;1.60;;;20.50;99.90;;;;;;4980881;28;20449;-80
2023/08/08 09:13:38;;;;;;;1.83;1.43;;;20.70;99.90;;;;;;4977276;28;20929;-78
2023/08/08 09:16:09;;;;;;;2.47;2.00;;;21.10;99.90;;;;;;4977500;28;20528;-79
2023/08/08 09:18:42;;;;;;;1.70;1.60;;;21.20;99.90;;;;;;4977135;28;20945;-78
2023/08/08 09:21:10;;;;;;;1.67;1.57;;;21.60;99.90;;;;;;4976701;28;20445;-77
2023/08/08 09:23:40;;;;;;;1.80;1.70;;;21.70;99.90;;;;;;4976939;28;20437;-77
2023/08/08 09:26:16;;;;;;;2.47;2.30;;;22.20;99.90;;;;;;4977088;28;20484;-76
2023/08/08 09:28:47;;;;;;;2.73;2.10;;;22.20;99.90;;;;;;4976660;28;20524;-77
2023/08/08 09:31:17;;;;;;;1.63;1.53;;;21.70;99.90;;;;;;4977787;28;20457;-77
2023/08/08 09:33:48;;;;;;;3.83;1.90;;;21.40;99.90;;;;;;4976746;28;20543;-77
2023/08/08 09:36:16;;;;;;;1.83;1.43;;;21.40;99.90;;;;;;4977112;28;20562;-77
2023/08/08 09:38:45;;;;;;;3.10;1.57;;;21.40;99.90;;;;;;4975975;28;20508;-76
2023/08/08 09:41:18;;;;;;;1.63;1.53;;;21.60;99.90;;;;;;4977711;28;20458;-77
2023/08/08 09:43:50;;;;;;;3.30;1.73;;;22.10;99.90;;;;;;4977458;28;20504;-77
2023/08/08 09:46:24;;;;;;;1.67;1.40;;;22.30;99.90;;;;;;4978497;28;20539;-78
2023/08/08 09:49:11;;;;;;;2.30;1.70;;;22.10;99.90;;;;;;4977940;28;20799;-77
2023/08/08 09:51:40;;;;;;;1.90;1.77;;;21.90;99.90;;;;;;4976740;28;20540;-77
2023/08/08 09:54:15;;;;;;;1.77;1.30;;;22.00;99.90;;;;;;4977471;28;20481;-78
2023/08/08 09:56:45;;;;;;;1.63;1.43;;;21.90;99.90;;;;;;4978285;28;20464;-77
2023/08/08 09:59:15;;;;;;;1.93;1.53;;;21.70;99.90;;;;;;4977676;28;20445;-77
2023/08/08 10:01:44;;;;;;;1.20;1.20;;;21.80;99.90;;;;;;4978411;28;20802;-77
2023/08/08 10:04:14;;;;;;;1.40;1.30;;;21.70;99.90;;;;;;4983430;28;20484;-78
2023/08/08 10:06:45;;;;;;;2.30;1.83;;;22.00;99.90;;;;;;4983747;28;20541;-79
2023/08/08 10:09:17;;;;;;;1.47;1.37;;;21.80;99.90;;;;;;4985797;28;20434;-78
2023/08/08 10:11:54;;;;;;;1.43;1.30;;;21.90;99.90;;;;;;4986346;28;20460;-79
2023/08/08 10:14:36;;;;;;;1.80;1.50;;;22.30;99.90;;;;;;4984600;28;20504;-76
2023/08/08 10:17:15;;;;;;;4.20;1.73;;;22.30;99.90;;;;;;4986982;28;20528;-78
2023/08/08 10:19:56;;;;;;;1.67;1.50;;;22.70;99.90;;;;;;4986019;28;20461;-77
2023/08/08 10:22:26;;;;;;;2.13;1.30;;;22.60;99.90;;;;;;4984404;28;20510;-78
2023/08/08 10:24:59;;;;;;;3.27;1.40;;;22.60;99.90;;;;;;4983053;28;20493;-79
2023/08/08 10:27:37;;;;;;;1.73;1.33;;;22.50;99.90;;;;;;4982212;28;20933;-77
2023/08/08 10:30:14;;;;;;;1.50;1.30;;;22.30;99.90;;;;;;4982087;28;20445;-79
2023/08/08 10:33:03;;;;;;;1.80;1.37;;;22.40;99.90;;;;;;4984356;28;20507;-80
2023/08/08 10:35:39;;;;;;;1.77;1.20;;;22.60;99.90;;;;;;4986205;28;20544;-78
2023/08/08 10:38:21;;;;;;;1.93;1.43;;;22.60;99.90;;;;;;4988794;28;20868;-77
2023/08/08 10:41:08;;;;;;;1.20;1.10;;;22.60;99.90;;;;;;4987472;28;20485;-77
2023/08/08 10:44:00;;;;;;;1.40;1.30;;;22.60;99.90;;;;;;4986602;28;20452;-77
2023/08/08 10:46:38;;;;;;;1.47;1.20;;;22.80;99.90;;;;;;4985554;28;20529;-76
2023/08/08 10:52:09;;;;;;;1.40;1.33;;;23.40;99.90;;;;;;4978286;28;20516;-77
2023/08/08 10:54:53;;;;;;;1.37;1.30;;;23.40;99.90;;;;;;4979143;28;20532;-79
2023/08/08 10:57:32;;;;;;;1.40;1.30;;;23.30;99.90;;;;;;4982382;28;20528;-78
2023/08/08 11:00:24;;;;;;;1.63;1.50;;;22.90;99.90;;;;;;4981885;28;20520;-78
2023/08/08 11:03:01;;;;;;;1.50;1.40;;;22.80;99.90;;;;;;4981289;28;20460;-78
2023/08/08 11:05:48;;;;;;;1.53;1.40;;;23.20;99.90;;;;;;4983714;28;20464;-77
2023/08/08 11:08:30;;;;;;;2.13;1.30;;;23.00;99.90;;;;;;4979745;28;21055;-79
2023/08/08 11:11:00;;;;;;;2.10;1.37;;;23.40;99.90;;;;;;4977339;28;20525;-77
2023/08/08 11:13:33;;;;;;;1.57;1.20;;;23.80;99.90;;;;;;4976946;28;20477;-79
2023/08/08 11:16:04;;;;;;;1.33;1.20;;;24.10;99.90;;;;;;4978223;28;20972;-77
2023/08/08 11:18:37;;;;;;;1.87;1.40;;;23.30;99.10;;;;;;4976132;28;20461;-76
2023/08/08 11:21:14;;;;;;;1.40;1.30;;;23.30;99.90;;;;;;4975113;28;20454;-78
2023/08/08 11:23:48;;;;;;;1.30;1.20;;;23.10;99.90;;;;;;4958248;29;20497;-79
2023/08/08 11:26:19;;;;;;;3.90;1.63;;;22.90;99.90;;;;;;4960653;28;20522;-78
2023/08/08 11:28:54;;;;;;;1.97;1.37;;;22.90;99.90;;;;;;4960101;29;20465;-77
2023/08/08 11:31:26;;;;;;;1.77;1.10;;;22.70;99.90;;;;;;4960127;28;20477;-77
2023/08/08 11:33:57;;;;;;;1.17;1.03;;;22.90;98.00;;;;;;4960940;28;20558;-80
2023/08/08 11:36:25;;;;;;;1.37;1.27;;;23.40;97.20;;;;;;4973293;28;20470;-78
2023/08/08 11:38:53;;;;;;;1.90;1.30;;;23.50;98.00;;;;;;4976868;28;20511;-76
2023/08/08 11:41:27;;;;;;;1.37;1.33;;;23.90;97.80;;;;;;4976165;28;20426;-77
2023/08/08 11:43:55;;;;;;;1.20;1.20;;;24.40;96.40;;;;;;4976152;28;20819;-76
2023/08/08 11:46:28;;;;;;;1.70;1.60;;;24.20;95.00;;;;;;4982765;28;20544;-78
2023/08/08 11:49:07;;;;;;;1.60;1.50;;;23.70;95.50;;;;;;4984075;28;20487;-78
2023/08/08 11:51:35;;;;;;;1.60;1.50;;;23.50;96.80;;;;;;4982669;28;20441;-79
2023/08/08 11:54:09;;;;;;;2.00;1.40;;;24.00;97.00;;;;;;4979696;28;20485;-77
2023/08/08 11:56:38;;;;;;;1.70;1.60;;;24.10;97.60;;;;;;4979425;28;20473;-76
2023/08/08 11:59:07;;;;;;;1.40;1.30;;;24.10;96.80;;;;;;4982725;28;20508;-77
2023/08/08 12:01:37;;;;;;;2.10;1.37;;;24.10;96.20;;;;;;4984154;28;20455;-81
2023/08/08 12:04:12;;;;;;;1.93;1.80;;;24.50;96.20;;;;;;4981588;28;20434;-78
2023/08/08 12:06:48;;;;;;;2.07;1.40;;;24.50;97.70;;;;;;4978109;28;20484;-78
2023/08/08 12:09:19;;;;;;;1.37;1.27;;;24.90;97.00;;;;;;4977826;28;20507;-77
2023/08/08 12:11:48;;;;;;;1.73;1.23;;;24.90;95.80;;;;;;4978438;28;20461;-77
2023/08/08 12:14:23;;;;;;;2.37;1.93;;;24.80;95.50;;;;;;4980497;28;20483;-78
2023/08/08 12:17:02;;;;;;;1.30;1.20;;;25.00;95.00;;;;;;4984594;28;20503;-78
2023/08/08 12:19:29;;;;;;;2.90;1.20;;;25.00;95.10;;;;;;4984344;28;20457;-78
2023/08/08 12:21:57;;;;;;;7.53;1.70;;;25.20;94.70;;;;;;4987588;28;20472;-77
2023/08/08 12:24:29;;;;;;;1.40;1.30;;;25.10;93.90;;;;;;4985365;28;20460;-78
2023/08/08 12:27:06;;;;;;;1.67;1.33;;;25.10;92.60;;;;;;4985139;28;20774;-78
2023/08/08 12:29:39;;;;;;;1.60;1.50;;;25.30;93.10;;;;;;4981510;28;20468;-78
2023/08/08 12:32:11;;;;;;;2.17;1.60;;;25.50;92.10;;;;;;4979765;28;20453;-78
2023/08/08 12:34:42;;;;;;;1.37;1.30;;;24.90;91.60;;;;;;4978321;28;20569;-81
2023/08/08 12:37:14;;;;;;;1.17;1.03;;;24.90;92.30;;;;;;4979397;28;20452;-79
2023/08/08 12:39:41;;;;;;;3.13;1.40;;;24.80;92.90;;;;;;4980831;28;20478;-76
2023/08/08 12:42:09;;;;;;;1.57;1.37;;;24.40;93.80;;;;;;4978737;28;20449;-78
2023/08/08 12:44:37;;;;;;;1.87;1.70;;;24.00;94.30;;;;;;4978923;28;20445;-78
2023/08/08 12:47:09;;;;;;;1.70;1.60;;;24.10;95.10;;;;;;4977910;28;20473;-82
2023/08/08 12:49:46;;;;;;;1.40;1.30;;;24.30;95.40;;;;;;4978279;28;20446;-79
2023/08/08 12:52:17;;;;;;;1.73;1.63;;;24.60;95.60;;;;;;4978666;28;20459;-76
2023/08/08 12:54:54;;;;;;;2.90;1.27;;;24.30;94.30;;;;;;4978178;28;20484;-78
2023/08/08 12:57:32;;;;;;;2.73;1.30;;;24.20;94.80;;;;;;4979780;28;20818;-78
2023/08/08 13:00:09;;;;;;;1.70;1.10;;;24.30;93.50;;;;;;4985227;28;20451;-77
2023/08/08 13:02:51;;;;;;;2.23;1.30;;;24.30;93.90;;;;;;4985805;28;20453;-78
2023/08/08 13:05:37;;;;;;;1.90;1.67;;;24.90;93.20;;;;;;4989029;28;20475;-79
2023/08/08 13:08:09;;;;;;;3.77;1.30;;;25.10;93.30;;;;;;4987033;28;20453;-78
2023/08/08 13:10:39;;;;;;;1.63;1.53;;;24.70;93.70;;;;;;4985950;28;20489;-78
2023/08/08 13:13:11;;;;;;;1.60;1.50;;;24.40;94.10;;;;;;4985120;28;20441;-79
2023/08/08 13:15:38;;;;;;;1.40;1.30;;;23.90;95.00;;;;;;4988338;28;20480;-79
2023/08/08 13:18:13;;;;;;;1.30;1.30;;;24.70;94.30;;;;;;4989092;28;20469;-78
2023/08/08 13:20:43;;;;;;;2.30;1.60;;;24.50;94.20;;;;;;4987414;28;20453;-78
2023/08/08 13:23:19;;;;;;;1.70;1.60;;;24.60;95.20;;;;;;4987116;28;20469;-79
2023/08/08 13:26:13;;;;;;;1.60;1.50;;;24.40;96.00;;;;;;4987594;28;20465;-80
2023/08/08 13:28:42;;;;;;;2.03;1.63;;;23.90;97.00;;;;;;4988426;28;20452;-79
2023/08/08 13:31:13;;;;;;;1.70;1.60;;;23.60;97.80;;;;;;4986407;28;20488;-78
2023/08/08 13:33:46;;;;;;;2.27;1.80;;;24.10;98.60;;;;;;4986490;28;20473;-78
2023/08/08 13:36:14;;;;;;;1.77;1.60;;;24.70;98.40;;;;;;4987287;28;20492;-77
2023/08/08 13:38:41;;;;;;;1.50;1.50;;;25.20;98.30;;;;;;4989025;28;20453;-77
2023/08/08 13:41:14;;;;;;;1.70;1.57;;;25.00;97.70;;;;;;4988107;28;20449;-78
2023/08/08 13:43:42;;;;;;;4.37;2.30;;;24.60;96.00;;;;;;4988567;28;20509;-78
2023/08/08 13:46:09;;;;;;;2.00;1.90;;;24.50;96.10;;;;;;4986372;28;20504;-80
2023/08/08 13:48:44;;;;;;;1.53;1.43;;;24.90;96.00;;;;;;4984456;28;21061;-79
2023/08/08 13:51:13;;;;;;;1.80;1.70;;;25.10;94.90;;;;;;4988246;28;20464;-77